Brussels RJ1H near Oostende on Jul 13th 2014, engine shut down in flight

Last Update: July 14, 2014 / 12:53:44 GMT/Zulu time

Bookmark this article
Incident Facts

Date of incident
Jul 13, 2014

Classification
Incident

Flight number
SN-2178

Aircraft Registration
OO-DWI

ICAO Type Designator
RJ1H

A Brussels Airlines Avro RJ-100, registration OO-DWI performing flight SN-2178 from Manchester,EN (UK) to Brussels (Belgium), was descending towards Brussels, several aircraft descending towards Brussels reporting being unable to continue towards Brussels due to a squall line, when the crew declared emergency after an engine (LF507) had been shut down. The aircraft diverted to Oostende (Belgium) for a safe landing about 40 minutes later.

The airline reported that due to technical problem the captain had to shut down one engine, the aircraft couldn't land in Brussels with just three engines due to the thunderstorms there and therefore diverted to Oostende.

Metars Brussels:
EBBR 131850Z 32005KT 9999 280V350 FEW025CB SCT027TCU 17/14 Q1008 NOSIG
EBBR 131820Z 32005KT 9999 280V350 FEW025CB SCT027TCU 17/14 Q1008 NOSIG
EBBR 131750Z 29007KT 220V020 6000-SHRA R25L/0800VP2000U R25R/1500VP2000U R01/0650VP2000U SCT024CB SCT025TCU 17/14 Q1008 RETS NOSIG
EBBR 131720Z 31009KT 280V340 1600 + TSRA BKN020CB 18/15 Q1007 NOSIG RESHRA
EBBR 131650Z 26008KT 9999 230V290 FEW016CB SCT021TCU 21/17 Q1007 TEMPO 4000 SHRA
EBBR 131620Z 24006KT 9999 FEW016CB SCT018TCU BKN035 20/18 Q1007 TEMPO 4000 SHRA
EBBR 131550Z 29006KT 9999 180V330 VCSH FEW018CB SCT022TCU BKN041 20/16 Q1007 TEMPO 4000 SHRA
EBBR 131520Z 26009KT 9999-SHRA 230V290 FEW020CB SCT022TCU BKN032 20/17 Q1007 TEMPO 2500 + SHRA
EBBR 131450Z 27009KT 9999 220V310 VCSH FEW016CB SCT020TCU 19/16 Q1007 TEMPO 2500 + SHRA RESHRA

Metars Oostende:
EBOS 131850Z 23009KT 9999 FEW018 18/13 Q1008 NOSIG
EBOS 131820Z 23010KT 9999 FEW018 19/14 Q1008 NOSIG
EBOS 131750Z 24009KT 200V260 9999 FEW018 19/14 Q1007 NOSIG
EBOS 131720Z 26014KT 9999 FEW018 19/14 Q1008 NOSIG
EBOS 131650Z 26014KT 9999 FEW018 20/15 Q1007 NOSIG
EBOS 131620Z 26015KT 9999 FEW018 19/15 Q1007 NOSIG
EBOS 131550Z 26016KT 9999 FEW015TCU 19/16 Q1007 NOSIG
EBOS 131520Z 27012KT 9999 FEW015TCU 20/16 Q1007 NOSIG
EBOS 131450Z 27011KT 9999 FEW015TCU 20/16 Q1007 NOSIG
Incident Facts

Date of incident
Jul 13, 2014

Classification
Incident

Flight number
SN-2178

Aircraft Registration
OO-DWI

ICAO Type Designator
RJ1H

This article is published under license from Avherald.com. © of text by Avherald.com.
Article source

You can read 2 more free articles without a subscription.

Subscribe now and continue reading without any limits!

Are you a subscriber? Login
Subscribe

Read unlimited articles and receive our daily update briefing. Gain better insights into what is happening in commercial aviation safety.

Free newsletter

Want to know more and stay ahead? Get our free weekly newsletter and join 5603 existing subscribers.

By subscribing, you accept our terms and conditions and confirm that you've read our privacy policy.

Send tip

Support AeroInside by sending a small tip amount.

Related articles

Newest articles

Subscribe today

Are you researching aviation incidents? Get access to AeroInside Insights, unlimited read access and receive the daily newsletter.

Pick your plan and subscribe

Partner

Blockaviation logo

A new way to document and demonstrate airworthiness compliance and aircraft value. Find out more.

Virtual Speech logo

ELITE Simulation Solutions is a leading global provider of Flight Simulation Training Devices, IFR training software as well as flight controls and related services. Find out more.

Get updates

Never miss an article from AeroInside. Subscribe to our free weekly newsletter and join 5603 existing subscribers.

By subscribing, you accept our terms and conditions and that you've read our privacy policy.

AeroInside Blog
Popular aircraft
Airbus A320
Boeing 737-800
Boeing 737-800 MAX
Popular airlines
American Airlines
United
Delta
Air Canada
Lufthansa
British Airways